Manley Hot Springs, Alaska
Current Conditions -  °F | °C
As of 5:52 AM on Saturday 20 Dec 2014 (Local Time) from PATA Reporting Station
Clear Clear  
Wind Chill: -24°   Ceiling: Unl
Heat Index: -12°   Visibility: 10mi
Dew Point: -17°   Wind: 5mph
Humidity: 78%   Direction: 340°NNW
Pressure: 29.27"   Gusts: NA
Location:  65°N, 150.64°W
Report Text: PATA 201452Z AUTO 34004KT 10SM CLR M24/M27 A2927 RMK AO2 SLP923 I3000 T12441272 58009 TSNO
Loading
Personal Weather Stations






























Interactive Weather Map New forecast layout! Learn more

10-Day Weather Forecast

Advertisements
Track Severe Weather on mobile